createdAt,value
2022-11-30T00:02:30.799Z,9.82
2022-11-30T00:07:32.348Z,9.80
2022-11-30T00:12:34.209Z,9.79
2022-11-30T00:17:35.551Z,9.79
2022-11-30T00:22:36.920Z,9.80
2022-11-30T00:27:38.301Z,9.80
2022-11-30T00:32:39.661Z,9.65
2022-11-30T00:37:40.994Z,9.69
2022-11-30T00:42:42.361Z,9.79
2022-11-30T00:47:43.722Z,9.84
2022-11-30T00:52:45.075Z,9.82
2022-11-30T00:57:46.408Z,9.71
2022-11-30T01:02:47.813Z,9.64
2022-11-30T01:07:49.246Z,9.74
2022-11-30T01:12:50.697Z,9.82
2022-11-30T01:17:52.112Z,9.86
2022-11-30T01:22:55.291Z,9.90
2022-11-30T01:27:56.671Z,9.90
2022-11-30T01:33:05.568Z,9.92
2022-11-30T01:38:06.937Z,9.96
2022-11-30T01:43:11.844Z,9.98
2022-11-30T01:48:13.452Z,9.99
2022-11-30T01:53:15.004Z,9.98
2022-11-30T01:58:22.917Z,9.97
2022-11-30T02:03:38.829Z,9.99
2022-11-30T02:08:40.271Z,9.99
2022-11-30T02:13:52.253Z,9.93
2022-11-30T02:19:14.548Z,9.91
2022-11-30T02:24:27.814Z,9.95
2022-11-30T02:29:33.514Z,9.92
2022-11-30T02:34:37.052Z,9.89
2022-11-30T02:39:38.438Z,9.86
2022-11-30T02:44:42.718Z,9.85
2022-11-30T02:49:56.910Z,9.83
2022-11-30T02:55:01.010Z,9.80
2022-11-30T03:00:07.413Z,9.76
2022-11-30T03:05:09.646Z,9.76
2022-11-30T03:10:11.212Z,9.71
2022-11-30T03:15:12.577Z,9.72
2022-11-30T03:20:14.056Z,9.65
2022-11-30T03:25:15.497Z,9.69
2022-11-30T03:30:17.203Z,9.71
2022-11-30T03:35:19.227Z,9.72
2022-11-30T03:40:20.592Z,9.72
2022-11-30T03:45:22.026Z,9.76
2022-11-30T03:50:23.354Z,9.69
2022-11-30T03:55:24.693Z,9.61
2022-11-30T04:00:26.120Z,9.55
2022-11-30T04:05:29.030Z,9.57
2022-11-30T04:10:30.466Z,9.64
2022-11-30T04:15:31.844Z,9.70
2022-11-30T04:20:37.384Z,9.73
2022-11-30T04:25:41.844Z,9.75
2022-11-30T04:30:44.055Z,9.75
2022-11-30T04:35:50.643Z,9.80
2022-11-30T04:40:52.641Z,9.81
2022-11-30T04:45:54.011Z,9.78
2022-11-30T04:51:01.369Z,9.71
2022-11-30T04:56:10.486Z,9.74
2022-11-30T05:01:11.884Z,9.79
2022-11-30T05:06:13.264Z,9.84
2022-11-30T05:11:14.641Z,9.85
2022-11-30T05:16:16.055Z,9.90
2022-11-30T05:21:17.822Z,9.91
2022-11-30T05:26:19.211Z,9.94
2022-11-30T05:31:20.677Z,9.96
2022-11-30T05:36:22.391Z,9.97
2022-11-30T05:41:23.821Z,9.98
2022-11-30T05:46:25.258Z,10.00
2022-11-30T05:51:26.667Z,9.97
2022-11-30T05:56:28.098Z,9.92
2022-11-30T06:01:29.850Z,9.95
2022-11-30T06:06:31.278Z,9.95
2022-11-30T06:11:32.738Z,9.98
2022-11-30T06:16:34.277Z,10.00
2022-11-30T06:21:35.832Z,10.01
2022-11-30T06:26:37.203Z,10.03
2022-11-30T06:31:38.632Z,10.02
2022-11-30T06:36:40.025Z,9.93
2022-11-30T06:41:41.502Z,10.02
2022-11-30T06:46:42.867Z,10.06
2022-11-30T06:51:44.236Z,10.05
2022-11-30T06:56:45.607Z,10.05
2022-11-30T07:01:46.974Z,10.07
2022-11-30T07:06:48.350Z,10.13
2022-11-30T07:11:49.772Z,10.17
2022-11-30T07:16:51.757Z,10.18
2022-11-30T07:21:53.165Z,10.19
2022-11-30T07:26:54.557Z,10.24
2022-11-30T07:31:56.147Z,10.29
2022-11-30T07:36:57.595Z,10.31
2022-11-30T07:41:59.070Z,10.34
2022-11-30T07:47:01.062Z,10.38
2022-11-30T07:52:04.477Z,10.41
2022-11-30T07:57:06.394Z,10.46
2022-11-30T08:02:10.453Z,10.53
2022-11-30T08:07:11.952Z,10.57
2022-11-30T08:12:13.386Z,10.58
2022-11-30T08:17:14.762Z,10.59
2022-11-30T08:22:16.160Z,10.60
2022-11-30T08:27:17.524Z,10.64
2022-11-30T08:32:19.018Z,10.70
2022-11-30T08:37:20.385Z,10.76
2022-11-30T08:42:21.794Z,10.84
2022-11-30T08:47:23.201Z,10.84
2022-11-30T08:52:24.900Z,10.89
2022-11-30T08:57:26.828Z,10.89
2022-11-30T09:02:28.256Z,10.90
2022-11-30T09:07:29.791Z,10.89
2022-11-30T09:12:34.727Z,10.96
2022-11-30T09:17:36.627Z,10.96
2022-11-30T09:22:37.991Z,11.01
2022-11-30T09:27:39.364Z,11.07
2022-11-30T09:32:40.770Z,11.11
2022-11-30T09:37:42.206Z,11.21
2022-11-30T09:42:54.423Z,11.27
2022-11-30T09:48:24.402Z,11.30
2022-11-30T09:53:37.518Z,11.43
2022-11-30T09:58:47.476Z,11.44
2022-11-30T10:03:49.287Z,11.46
2022-11-30T10:09:06.594Z,11.49
2022-11-30T10:14:36.542Z,11.49
2022-11-30T10:20:02.078Z,11.53
2022-11-30T10:25:12.445Z,11.57
2022-11-30T10:30:17.829Z,11.49
2022-11-30T10:35:32.865Z,11.47
2022-11-30T10:41:01.477Z,11.49
2022-11-30T10:46:02.942Z,11.57
2022-11-30T10:51:04.608Z,11.68
2022-11-30T10:56:10.134Z,11.74
2022-11-30T11:01:30.302Z,11.68
2022-11-30T11:06:33.294Z,11.82
2022-11-30T11:11:39.386Z,11.89
2022-11-30T11:17:08.906Z,11.89
2022-11-30T11:22:28.141Z,11.87
2022-11-30T11:27:33.078Z,11.90
2022-11-30T11:32:35.337Z,11.96
2022-11-30T11:37:41.035Z,11.88
2022-11-30T11:42:51.524Z,11.82
2022-11-30T11:48:33.600Z,11.78
2022-11-30T11:53:50.133Z,11.75
2022-11-30T11:59:09.762Z,11.78
2022-11-30T12:04:38.976Z,11.76
2022-11-30T12:09:51.540Z,11.83
2022-11-30T12:14:55.124Z,11.88
2022-11-30T12:20:14.795Z,11.95
2022-11-30T12:25:25.302Z,12.02
2022-11-30T12:30:41.722Z,12.00
2022-11-30T12:35:52.080Z,12.08
2022-11-30T12:41:17.879Z,12.14
2022-11-30T12:46:41.023Z,12.17
2022-11-30T12:51:56.932Z,12.20
2022-11-30T12:57:13.732Z,12.15
2022-11-30T13:02:36.909Z,12.12
2022-11-30T13:08:05.505Z,12.06
2022-11-30T13:13:13.437Z,12.00
2022-11-30T13:18:18.007Z,11.97
2022-11-30T13:23:31.810Z,11.96
2022-11-30T13:28:42.413Z,11.95
2022-11-30T13:33:53.015Z,11.89
2022-11-30T13:39:21.756Z,11.84
2022-11-30T13:44:38.279Z,11.84
2022-11-30T13:49:39.819Z,11.74
2022-11-30T13:54:50.296Z,11.78
2022-11-30T13:59:56.912Z,11.73
2022-11-30T14:05:18.632Z,11.71
2022-11-30T14:10:32.212Z,11.73
2022-11-30T14:15:40.581Z,11.74
2022-11-30T14:20:57.368Z,11.74
2022-11-30T14:26:10.948Z,11.73
2022-11-30T14:31:21.065Z,11.67
2022-11-30T14:36:27.223Z,11.63
2022-11-30T14:41:30.663Z,11.64
2022-11-30T14:46:34.978Z,11.62
2022-11-30T14:51:37.665Z,11.60
2022-11-30T14:56:48.836Z,11.59
2022-11-30T15:01:59.028Z,11.58
2022-11-30T15:07:00.672Z,11.53
2022-11-30T15:12:02.121Z,11.46
2022-11-30T15:17:03.661Z,11.42
2022-11-30T15:22:05.062Z,11.41
2022-11-30T15:27:14.053Z,11.35
2022-11-30T15:32:17.704Z,11.31
2022-11-30T15:37:19.375Z,11.21
2022-11-30T15:42:30.022Z,11.12
2022-11-30T15:47:38.629Z,11.04
2022-11-30T15:52:44.608Z,10.93
2022-11-30T15:58:02.042Z,10.95
2022-11-30T16:03:10.860Z,10.98
2022-11-30T16:08:17.894Z,10.91
2022-11-30T16:13:22.334Z,10.87
2022-11-30T16:18:26.382Z,10.77
2022-11-30T16:23:28.827Z,10.74
2022-11-30T16:28:30.191Z,10.70
2022-11-30T16:33:33.313Z,10.75
2022-11-30T16:38:34.678Z,10.65
2022-11-30T16:43:39.827Z,10.61
2022-11-30T16:48:41.861Z,10.52
2022-11-30T16:53:44.511Z,10.53
2022-11-30T16:58:46.086Z,10.53
2022-11-30T17:03:50.802Z,10.51
2022-11-30T17:08:52.421Z,10.44
2022-11-30T17:13:53.909Z,10.35
2022-11-30T17:18:55.567Z,10.32
2022-11-30T17:23:58.155Z,10.29
2022-11-30T17:28:59.747Z,10.23
2022-11-30T17:34:01.462Z,10.24
2022-11-30T17:39:07.057Z,10.24
2022-11-30T17:44:09.834Z,10.08
2022-11-30T17:49:11.199Z,10.00
2022-11-30T17:54:12.734Z,9.92
2022-11-30T17:59:14.173Z,9.90
2022-11-30T18:04:16.059Z,9.90
2022-11-30T18:09:17.457Z,9.91
2022-11-30T18:14:18.793Z,9.84
2022-11-30T18:19:21.841Z,9.73
2022-11-30T18:24:25.597Z,9.65
2022-11-30T18:29:27.475Z,9.68
2022-11-30T18:34:28.985Z,9.69
2022-11-30T18:39:30.343Z,9.71
2022-11-30T18:44:31.671Z,9.77
2022-11-30T18:49:33.062Z,9.83
2022-11-30T18:54:34.500Z,9.71
2022-11-30T18:59:35.855Z,9.70
2022-11-30T19:04:37.308Z,9.66
2022-11-30T19:09:38.681Z,9.81
2022-11-30T19:14:42.712Z,9.90
2022-11-30T19:19:44.125Z,9.85
2022-11-30T19:24:45.574Z,9.91
2022-11-30T19:29:47.138Z,9.91
2022-11-30T19:34:49.469Z,9.99
2022-11-30T19:39:51.078Z,10.09
2022-11-30T19:44:52.459Z,10.05
2022-11-30T19:49:53.786Z,9.98
2022-11-30T19:54:55.113Z,9.91
2022-11-30T19:59:56.474Z,10.00
2022-11-30T20:04:57.804Z,10.06
2022-11-30T20:09:59.191Z,10.11
2022-11-30T20:15:00.549Z,10.18
2022-11-30T20:20:02.151Z,10.23
2022-11-30T20:25:03.799Z,10.28
2022-11-30T20:30:07.620Z,10.32
2022-11-30T20:35:10.275Z,10.37
2022-11-30T20:40:12.077Z,10.37
2022-11-30T20:45:13.463Z,10.40
2022-11-30T20:50:14.859Z,10.42
2022-11-30T20:55:16.197Z,10.42
2022-11-30T21:00:18.253Z,10.42
2022-11-30T21:05:19.589Z,10.42
2022-11-30T21:10:20.961Z,10.40
2022-11-30T21:15:22.308Z,10.39
2022-11-30T21:20:23.682Z,10.37
2022-11-30T21:25:25.021Z,10.38
2022-11-30T21:30:26.363Z,10.41
2022-11-30T21:35:27.756Z,10.41
2022-11-30T21:40:29.143Z,10.42
2022-11-30T21:45:30.481Z,10.41
2022-11-30T21:50:31.843Z,10.42
2022-11-30T21:55:33.718Z,10.44
2022-11-30T22:00:35.134Z,10.45
2022-11-30T22:05:36.474Z,10.45
2022-11-30T22:10:37.841Z,10.46
2022-11-30T22:15:39.219Z,10.44
2022-11-30T22:20:40.695Z,10.43
2022-11-30T22:25:42.297Z,10.43
2022-11-30T22:30:44.514Z,10.44
2022-11-30T22:35:45.933Z,10.42
2022-11-30T22:40:47.253Z,10.43
2022-11-30T22:45:48.606Z,10.46
2022-11-30T22:50:49.943Z,10.45
2022-11-30T22:55:51.381Z,10.43
2022-11-30T23:00:52.800Z,10.44
2022-11-30T23:05:54.589Z,10.37
2022-11-30T23:11:05.077Z,10.26
2022-11-30T23:16:07.287Z,10.04
2022-11-30T23:21:33.665Z,10.02
2022-11-30T23:26:39.350Z,9.93
2022-11-30T23:31:42.679Z,9.81
2022-11-30T23:36:44.637Z,9.73
2022-11-30T23:41:46.280Z,9.75
2022-11-30T23:46:48.022Z,9.66
2022-11-30T23:51:49.491Z,9.50
2022-11-30T23:56:51.360Z,9.49
